Time;durP1;ratioP1;P1;durP2;ratioP2;P2;SDS_P1;SDS_P2;PMS_P1;PMS_P2;Temp;Humidity;BMP_temperature;BMP_pressure;BME280_temperature;BME280_humidity;BME280_pressure;Samples;Min_cycle;Max_cycle;Signal;HPM_P1;HPM_P2
2021/06/07 00:00:53;;;;;;;2.33;1.70;;;12.90;99.90;;;;;;6265681;22;20173;-80
2021/06/07 00:03:20;;;;;;;3.47;2.60;;;12.90;99.90;;;;;;6266626;22;20208;-77
2021/06/07 00:05:46;;;;;;;1.40;1.30;;;12.80;99.90;;;;;;6265541;22;20173;-77
2021/06/07 00:08:13;;;;;;;1.93;1.60;;;12.90;99.90;;;;;;6264790;22;21040;-80
2021/06/07 00:10:40;;;;;;;2.63;2.20;;;12.80;99.90;;;;;;6265374;22;20177;-82
2021/06/07 00:13:06;;;;;;;1.50;1.40;;;12.80;99.90;;;;;;6265685;22;20176;-78
2021/06/07 00:15:33;;;;;;;2.97;1.33;;;12.80;99.90;;;;;;6265820;22;20207;-80
2021/06/07 00:18:00;;;;;;;1.30;1.20;;;12.80;99.90;;;;;;6265909;22;20176;-82
2021/06/07 00:20:31;;;;;;;1.97;1.40;;;12.80;99.90;;;;;;6265227;22;20176;-82
2021/06/07 00:22:58;;;;;;;1.23;1.10;;;12.70;99.90;;;;;;6265687;22;20160;-76
2021/06/07 00:25:26;;;;;;;1.33;1.23;;;12.70;99.90;;;;;;6264950;22;20353;-77
2021/06/07 00:27:52;;;;;;;1.13;1.10;;;12.70;99.90;;;;;;6265340;22;20173;-81
2021/06/07 00:30:19;;;;;;;2.13;1.43;;;12.70;99.90;;;;;;6265006;22;20183;-81
2021/06/07 00:32:45;;;;;;;1.27;1.13;;;12.70;99.90;;;;;;6264118;22;20208;-81
2021/06/07 00:35:14;;;;;;;2.90;1.50;;;12.60;99.90;;;;;;6265149;22;20169;-77
2021/06/07 00:37:40;;;;;;;1.77;1.60;;;12.60;99.90;;;;;;6263988;22;20453;-81
2021/06/07 00:40:08;;;;;;;2.27;1.50;;;12.60;99.90;;;;;;6263797;22;20180;-80
2021/06/07 00:42:35;;;;;;;2.03;1.70;;;12.60;99.90;;;;;;6265259;22;20232;-79
2021/06/07 00:45:02;;;;;;;3.80;1.60;;;12.50;99.90;;;;;;6264108;22;20184;-77
2021/06/07 00:47:30;;;;;;;3.10;1.60;;;12.50;99.90;;;;;;6265053;22;20169;-74
2021/06/07 00:49:57;;;;;;;2.60;1.63;;;12.40;99.90;;;;;;6265803;22;20176;-78
2021/06/07 00:52:24;;;;;;;1.60;1.50;;;12.40;99.90;;;;;;6265400;22;20251;-75
2021/06/07 00:54:50;;;;;;;2.10;1.37;;;12.30;99.90;;;;;;6265341;22;20211;-79
2021/06/07 00:57:16;;;;;;;1.50;1.40;;;12.30;99.90;;;;;;6265883;22;20561;-80
2021/06/07 00:59:44;;;;;;;2.20;1.50;;;12.30;99.90;;;;;;6265050;22;20172;-78
2021/06/07 01:02:10;;;;;;;1.57;1.27;;;12.30;99.90;;;;;;6263254;22;20173;-79
2021/06/07 01:04:37;;;;;;;1.50;1.20;;;12.30;99.90;;;;;;6264900;22;20179;-75
2021/06/07 01:07:03;;;;;;;1.30;1.20;;;12.30;99.90;;;;;;6264960;22;20217;-79
2021/06/07 01:09:30;;;;;;;1.50;1.40;;;12.30;99.90;;;;;;6264005;22;20218;-76
2021/06/07 01:11:56;;;;;;;2.10;1.40;;;12.20;99.90;;;;;;6265423;22;20196;-76
2021/06/07 01:14:22;;;;;;;1.30;1.20;;;12.20;99.90;;;;;;6264047;22;20172;-77
2021/06/07 01:16:50;;;;;;;1.47;1.37;;;12.20;99.90;;;;;;6265313;22;20181;-78
2021/06/07 01:19:18;;;;;;;1.40;1.30;;;12.20;99.90;;;;;;6265020;22;20251;-78
2021/06/07 01:21:45;;;;;;;1.07;1.07;;;12.20;99.90;;;;;;6264579;22;20435;-78
2021/06/07 01:24:12;;;;;;;1.87;1.37;;;12.20;99.90;;;;;;6264847;22;20196;-78
2021/06/07 01:26:40;;;;;;;1.23;1.10;;;12.20;99.90;;;;;;6265113;22;20176;-75
2021/06/07 01:29:06;;;;;;;1.47;1.37;;;12.10;99.90;;;;;;6263879;22;20179;-78
2021/06/07 01:31:33;;;;;;;2.60;1.50;;;12.10;99.90;;;;;;6265043;22;20192;-78
2021/06/07 01:34:00;;;;;;;2.17;1.50;;;12.10;99.90;;;;;;6264542;22;20183;-78
2021/06/07 01:36:26;;;;;;;1.83;1.40;;;12.10;99.90;;;;;;6264173;22;20173;-77
2021/06/07 01:38:52;;;;;;;1.80;1.40;;;12.00;99.90;;;;;;6264908;22;20177;-78
2021/06/07 01:41:20;;;;;;;1.20;1.10;;;12.00;99.90;;;;;;6265590;22;20597;-79
2021/06/07 01:43:47;;;;;;;1.47;1.37;;;12.00;99.90;;;;;;6264641;22;20463;-80
2021/06/07 01:46:14;;;;;;;1.40;1.30;;;12.00;99.90;;;;;;6265338;22;20191;-76
2021/06/07 01:48:40;;;;;;;1.40;1.20;;;12.00;99.90;;;;;;6265281;22;20242;-78
2021/06/07 01:51:08;;;;;;;1.50;1.40;;;12.00;99.90;;;;;;6264943;22;20202;-79
2021/06/07 01:53:35;;;;;;;1.50;1.40;;;12.00;99.90;;;;;;6265035;22;20176;-77
2021/06/07 01:56:05;;;;;;;1.37;1.27;;;11.90;99.90;;;;;;6266000;22;20172;-78
2021/06/07 01:58:33;;;;;;;2.00;1.37;;;11.90;99.90;;;;;;6268634;22;20870;-75
2021/06/07 02:01:03;;;;;;;1.93;1.40;;;11.80;99.90;;;;;;6266361;22;20228;-78
2021/06/07 02:03:29;;;;;;;1.30;1.20;;;11.80;99.90;;;;;;6266272;22;20181;-77
2021/06/07 02:05:59;;;;;;;2.37;1.70;;;11.80;99.90;;;;;;6265241;22;20176;-77
2021/06/07 02:08:29;;;;;;;1.30;1.20;;;11.80;99.90;;;;;;6263703;22;20582;-78
2021/06/07 02:10:58;;;;;;;1.60;1.40;;;11.80;99.90;;;;;;6264102;22;20296;-77
2021/06/07 02:13:25;;;;;;;1.20;1.07;;;11.70;99.90;;;;;;6263939;22;20176;-78
2021/06/07 02:15:59;;;;;;;2.37;1.20;;;11.80;99.90;;;;;;6264725;22;20176;-77
2021/06/07 02:18:26;;;;;;;1.43;1.33;;;11.70;99.90;;;;;;6263365;22;20218;-78
2021/06/07 02:20:52;;;;;;;1.53;1.20;;;11.70;99.90;;;;;;6264192;22;20184;-78
2021/06/07 02:23:19;;;;;;;1.30;1.20;;;11.70;99.90;;;;;;6264101;22;20173;-78
2021/06/07 02:25:45;;;;;;;0.90;0.90;;;11.70;99.90;;;;;;6263608;22;20176;-76
2021/06/07 02:28:13;;;;;;;1.73;1.30;;;11.60;99.90;;;;;;6263686;22;20713;-76
2021/06/07 02:30:40;;;;;;;1.27;1.17;;;11.60;99.90;;;;;;6263535;22;20183;-77
2021/06/07 02:33:09;;;;;;;1.27;1.17;;;11.60;99.90;;;;;;6263822;22;20599;-80
2021/06/07 02:35:35;;;;;;;1.80;1.20;;;11.60;99.90;;;;;;6263693;22;20172;-76
2021/06/07 02:38:02;;;;;;;1.27;1.17;;;11.50;99.90;;;;;;6264357;22;20173;-76
2021/06/07 02:40:30;;;;;;;1.50;1.20;;;11.50;99.90;;;;;;6262635;22;20177;-78
2021/06/07 02:42:58;;;;;;;1.60;1.50;;;11.50;99.90;;;;;;6262972;22;20175;-77
2021/06/07 02:45:27;;;;;;;1.90;1.17;;;11.50;99.90;;;;;;6264360;22;20173;-79
2021/06/07 02:47:56;;;;;;;1.43;1.33;;;11.50;99.90;;;;;;6264084;22;20176;-79
2021/06/07 02:50:25;;;;;;;2.20;1.60;;;11.40;99.90;;;;;;6264289;22;20168;-81
2021/06/07 02:52:52;;;;;;;2.07;1.37;;;11.40;99.90;;;;;;6262980;22;20192;-76
2021/06/07 02:55:21;;;;;;;1.53;1.40;;;11.40;99.90;;;;;;6265469;22;20173;-76
2021/06/07 02:57:50;;;;;;;1.37;1.27;;;11.40;99.90;;;;;;6264705;22;20180;-74
2021/06/07 03:00:19;;;;;;;1.27;1.17;;;11.30;99.90;;;;;;6263501;22;20165;-79
2021/06/07 03:02:46;;;;;;;1.53;1.17;;;11.30;99.90;;;;;;6263576;22;20169;-79
2021/06/07 03:05:13;;;;;;;1.30;1.20;;;11.30;99.90;;;;;;6264853;22;20176;-75
2021/06/07 03:07:41;;;;;;;1.30;1.20;;;11.30;99.90;;;;;;6263357;22;20227;-76
2021/06/07 03:10:10;;;;;;;1.27;1.10;;;11.30;99.90;;;;;;6263810;22;20246;-79
2021/06/07 03:12:36;;;;;;;1.37;1.10;;;11.30;99.90;;;;;;6264304;22;20223;-79
2021/06/07 03:15:04;;;;;;;2.50;1.30;;;11.30;99.90;;;;;;6263763;22;20173;-81
2021/06/07 03:17:30;;;;;;;1.27;1.20;;;11.30;99.90;;;;;;6263284;22;20179;-76
2021/06/07 03:19:57;;;;;;;1.47;1.33;;;11.30;99.90;;;;;;6264128;22;20169;-79
2021/06/07 03:22:23;;;;;;;1.40;1.30;;;11.30;99.90;;;;;;6264567;22;20173;-77
2021/06/07 03:24:51;;;;;;;1.43;1.33;;;11.30;99.90;;;;;;6264397;22;20172;-78
2021/06/07 03:27:19;;;;;;;1.87;1.60;;;11.30;99.90;;;;;;6265196;22;20231;-80
2021/06/07 03:29:46;;;;;;;2.23;1.70;;;11.30;99.90;;;;;;6262716;22;20177;-77
2021/06/07 03:32:13;;;;;;;1.63;1.53;;;11.30;99.90;;;;;;6263632;22;20623;-77
2021/06/07 03:34:40;;;;;;;1.50;1.40;;;11.30;99.90;;;;;;6264153;22;20172;-75
2021/06/07 03:37:06;;;;;;;1.57;1.47;;;11.30;99.90;;;;;;6263382;22;20173;-78
2021/06/07 03:39:33;;;;;;;2.33;2.13;;;11.30;99.90;;;;;;6264124;22;20520;-79
2021/06/07 03:42:01;;;;;;;3.20;1.90;;;11.30;99.90;;;;;;6264817;22;20177;-77
2021/06/07 03:44:27;;;;;;;1.90;1.80;;;11.30;99.90;;;;;;6264468;22;20744;-79
2021/06/07 03:46:53;;;;;;;2.00;1.80;;;11.30;99.90;;;;;;6264792;22;20616;-79
2021/06/07 03:49:20;;;;;;;1.80;1.70;;;11.30;99.90;;;;;;6264524;22;20180;-77
2021/06/07 03:51:46;;;;;;;3.17;1.90;;;11.30;99.90;;;;;;6265174;22;20246;-80
2021/06/07 03:54:12;;;;;;;2.20;2.07;;;11.30;99.90;;;;;;6266276;22;20180;-77
2021/06/07 03:56:39;;;;;;;2.07;1.87;;;11.30;99.90;;;;;;6265209;22;20582;-80
2021/06/07 03:59:07;;;;;;;1.90;1.80;;;11.40;99.90;;;;;;6265541;22;20433;-81
2021/06/07 04:01:33;;;;;;;2.00;1.90;;;11.40;99.90;;;;;;6265356;22;20764;-77
2021/06/07 04:03:59;;;;;;;2.80;2.60;;;11.40;99.90;;;;;;6264904;22;20800;-80
2021/06/07 04:06:26;;;;;;;2.23;2.03;;;11.50;99.90;;;;;;6265031;22;20221;-79
2021/06/07 04:08:56;;;;;;;3.13;2.43;;;11.50;99.90;;;;;;6265418;22;20177;-81
2021/06/07 04:11:23;;;;;;;3.13;2.40;;;11.50;99.90;;;;;;6264632;22;20212;-80
2021/06/07 04:13:49;;;;;;;3.73;3.30;;;11.60;99.90;;;;;;6265502;22;20180;-80
2021/06/07 04:16:17;;;;;;;4.57;3.50;;;11.70;99.90;;;;;;6265354;22;20176;-81
2021/06/07 04:18:44;;;;;;;3.80;3.50;;;11.80;99.90;;;;;;6264753;22;20172;-81
2021/06/07 04:21:10;;;;;;;4.03;3.73;;;11.90;99.90;;;;;;6265259;22;20183;-80
2021/06/07 04:23:37;;;;;;;3.90;3.60;;;11.90;99.90;;;;;;6265259;22;20165;-78
2021/06/07 04:26:03;;;;;;;3.90;3.60;;;12.00;99.90;;;;;;6264114;22;20462;-80
2021/06/07 04:28:32;;;;;;;5.87;4.03;;;12.00;99.90;;;;;;6264714;22;20177;-80
2021/06/07 04:30:59;;;;;;;3.83;3.13;;;12.10;99.90;;;;;;6264969;22;20188;-77
2021/06/07 04:33:26;;;;;;;4.13;3.67;;;12.10;99.90;;;;;;6264237;22;20230;-79
2021/06/07 04:35:53;;;;;;;4.03;3.60;;;12.10;99.90;;;;;;6265648;22;20180;-76
2021/06/07 04:38:19;;;;;;;4.40;3.33;;;12.20;99.90;;;;;;6264367;22;20178;-78
2021/06/07 04:40:45;;;;;;;4.37;3.40;;;12.20;99.90;;;;;;6264857;22;20828;-79
2021/06/07 04:43:14;;;;;;;4.03;3.50;;;12.20;99.90;;;;;;6265376;22;20196;-79
2021/06/07 04:45:43;;;;;;;4.00;3.60;;;12.20;99.90;;;;;;6264764;22;20172;-81
2021/06/07 04:48:10;;;;;;;5.30;4.13;;;12.20;99.90;;;;;;6265237;22;20187;-80
2021/06/07 04:50:39;;;;;;;6.67;4.60;;;12.30;99.90;;;;;;6265626;22;20173;-81
2021/06/07 04:53:07;;;;;;;6.27;5.43;;;12.40;99.90;;;;;;6263630;22;20468;-77
2021/06/07 04:55:36;;;;;;;5.63;5.03;;;12.50;99.90;;;;;;6264858;22;20176;-80
2021/06/07 04:58:05;;;;;;;6.70;5.10;;;12.70;99.90;;;;;;6265020;22;20177;-80
2021/06/07 05:00:32;;;;;;;6.63;5.53;;;13.20;99.90;;;;;;6263877;22;20165;-77
2021/06/07 05:02:59;;;;;;;5.93;5.33;;;13.70;99.90;;;;;;6264638;22;20175;-80
2021/06/07 05:05:25;;;;;;;6.50;5.40;;;14.40;99.90;;;;;;6264427;22;20186;-81
2021/06/07 05:07:54;;;;;;;4.83;4.40;;;15.00;99.90;;;;;;6263818;22;20208;-80
2021/06/07 05:10:20;;;;;;;5.03;4.00;;;15.60;99.90;;;;;;6264272;22;20632;-81
2021/06/07 05:12:47;;;;;;;4.10;3.80;;;16.10;99.90;;;;;;6264602;22;20200;-79
2021/06/07 05:15:14;;;;;;;4.40;4.00;;;16.60;99.90;;;;;;6263572;22;20466;-79
2021/06/07 05:17:42;;;;;;;3.87;2.83;;;17.10;99.90;;;;;;6263752;22;20911;-80
2021/06/07 05:20:14;;;;;;;4.57;3.27;;;17.60;99.90;;;;;;6264003;22;20199;-79
2021/06/07 05:22:40;;;;;;;6.03;3.37;;;18.00;99.90;;;;;;6264278;22;20172;-81
2021/06/07 05:25:11;;;;;;;3.20;2.57;;;18.40;99.90;;;;;;6264236;22;20172;-82
2021/06/07 05:27:37;;;;;;;4.57;2.42;;;18.60;99.90;;;;;;6263088;22;20165;-79
2021/06/07 05:30:04;;;;;;;3.65;2.70;;;18.80;99.90;;;;;;6264126;22;20177;-80
2021/06/07 05:32:31;;;;;;;3.95;2.58;;;19.00;99.90;;;;;;6263768;22;20246;-79
2021/06/07 05:34:59;;;;;;;2.78;2.28;;;19.20;99.90;;;;;;6263743;22;20239;-82
2021/06/07 05:37:25;;;;;;;2.58;2.38;;;19.50;99.90;;;;;;6264829;22;20177;-79
2021/06/07 05:39:51;;;;;;;5.28;2.60;;;19.70;99.90;;;;;;6264485;22;20238;-80
2021/06/07 05:42:19;;;;;;;5.43;2.42;;;20.00;99.90;;;;;;6263852;22;20164;-82
2021/06/07 05:44:46;;;;;;;4.55;3.13;;;20.20;99.90;;;;;;6263948;22;20177;-81
2021/06/07 05:47:12;;;;;;;4.32;2.40;;;20.50;99.90;;;;;;6264875;22;20601;-82
2021/06/07 05:49:39;;;;;;;2.20;2.00;;;20.70;99.90;;;;;;6263783;22;20169;-81
2021/06/07 05:52:06;;;;;;;3.45;2.47;;;20.90;99.90;;;;;;6264358;22;20266;-80
2021/06/07 05:54:32;;;;;;;2.75;2.17;;;21.20;99.90;;;;;;6263709;22;20621;-80
2021/06/07 05:56:59;;;;;;;4.07;2.28;;;21.40;99.90;;;;;;6263299;22;20168;-82
2021/06/07 05:59:26;;;;;;;1.98;1.60;;;21.60;99.90;;;;;;6264018;22;20172;-82
2021/06/07 06:01:53;;;;;;;2.58;1.83;;;21.80;99.90;;;;;;6265136;22;20169;-79
2021/06/07 06:04:19;;;;;;;2.58;1.70;;;21.90;99.90;;;;;;6264509;22;20234;-81
2021/06/07 06:06:45;;;;;;;5.85;2.10;;;21.80;99.90;;;;;;6264746;22;20506;-84
2021/06/07 06:09:11;;;;;;;6.00;2.17;;;21.90;99.90;;;;;;6264512;22;20617;-77
2021/06/07 06:11:39;;;;;;;2.85;2.13;;;21.90;99.90;;;;;;6264533;22;20466;-82
2021/06/07 06:14:05;;;;;;;2.50;1.50;;;22.00;99.90;;;;;;6264266;22;20231;-82
2021/06/07 06:16:33;;;;;;;4.10;1.63;;;22.10;99.90;;;;;;6264518;22;20196;-83
2021/06/07 06:18:59;;;;;;;3.97;1.80;;;22.40;99.90;;;;;;6263110;22;20173;-81
2021/06/07 06:21:27;;;;;;;3.72;1.83;;;22.60;99.90;;;;;;6264014;22;20172;-83
2021/06/07 06:23:54;;;;;;;2.50;2.05;;;22.70;99.90;;;;;;6264884;22;20256;-83
2021/06/07 06:26:21;;;;;;;2.40;1.60;;;22.70;99.90;;;;;;6265125;22;20270;-81
2021/06/07 06:28:48;;;;;;;4.22;2.00;;;22.90;99.90;;;;;;6265897;22;20172;-82
2021/06/07 06:31:15;;;;;;;3.45;2.60;;;23.10;99.90;;;;;;6265763;22;20165;-77
2021/06/07 06:33:44;;;;;;;5.00;2.25;;;22.90;99.90;;;;;;6266326;22;20180;-76
2021/06/07 06:36:10;;;;;;;2.65;1.98;;;22.80;99.90;;;;;;6264983;22;20169;-78
2021/06/07 06:38:37;;;;;;;2.38;1.60;;;22.90;99.90;;;;;;6264660;22;20172;-78
2021/06/07 06:44:27;;;;;;;3.30;2.22;;;23.40;99.90;;;;;;6172075;22;20837;-77
2021/06/07 06:46:54;;;;;;;3.22;2.00;;;23.60;99.90;;;;;;6266869;22;20173;-79
2021/06/07 06:49:21;;;;;;;4.32;2.13;;;23.80;99.90;;;;;;6271901;22;20172;-79
2021/06/07 06:51:48;;;;;;;4.47;2.35;;;23.80;99.90;;;;;;6271317;22;20459;-82
2021/06/07 06:54:14;;;;;;;3.65;2.40;;;23.90;99.90;;;;;;6271505;22;20204;-81
2021/06/07 06:56:40;;;;;;;4.82;2.40;;;23.80;99.90;;;;;;6272487;22;20573;-79
2021/06/07 06:59:07;;;;;;;3.25;1.75;;;23.90;99.90;;;;;;6282825;22;20153;-77
2021/06/07 07:01:33;;;;;;;3.03;1.92;;;24.10;99.90;;;;;;6280248;22;20651;-80
2021/06/07 07:03:59;;;;;;;3.03;1.92;;;24.00;99.90;;;;;;6268412;22;20173;-83
2021/06/07 07:06:27;;;;;;;2.05;1.85;;;24.20;99.90;;;;;;6265003;22;20838;-81
2021/06/07 07:08:53;;;;;;;2.00;1.80;;;24.20;99.90;;;;;;6265772;22;20231;-79
2021/06/07 07:11:21;;;;;;;3.15;1.75;;;24.50;99.90;;;;;;6264629;22;20184;-80
2021/06/07 07:13:47;;;;;;;2.95;1.98;;;24.70;99.90;;;;;;6262528;22;20590;-82
2021/06/07 07:16:13;;;;;;;7.20;2.20;;;24.60;99.90;;;;;;6263974;22;20184;-79
2021/06/07 07:18:40;;;;;;;3.58;2.08;;;24.70;99.90;;;;;;6265057;22;20633;-80
2021/06/07 07:21:06;;;;;;;2.85;2.03;;;25.00;99.90;;;;;;6265201;22;20195;-78
2021/06/07 07:23:34;;;;;;;3.67;2.00;;;25.10;99.90;;;;;;6265398;22;20183;-84
2021/06/07 07:26:01;;;;;;;2.25;1.88;;;24.60;99.90;;;;;;6264876;22;20187;-82
2021/06/07 07:28:27;;;;;;;3.38;1.80;;;24.40;99.90;;;;;;6264508;22;20184;-82
2021/06/07 07:30:54;;;;;;;5.10;1.95;;;24.20;99.90;;;;;;6264737;22;20208;-80
2021/06/07 07:33:21;;;;;;;3.42;1.67;;;24.00;99.90;;;;;;6264278;22;20313;-81
2021/06/07 07:35:47;;;;;;;2.33;1.48;;;24.00;99.90;;;;;;6263838;22;20169;-81
2021/06/07 07:38:14;;;;;;;4.03;2.10;;;24.40;99.90;;;;;;6265163;22;20188;-83
2021/06/07 07:40:42;;;;;;;3.75;1.50;;;24.80;99.90;;;;;;6264839;22;20485;-77
2021/06/07 07:43:09;;;;;;;3.13;1.70;;;24.90;99.90;;;;;;6262299;22;20180;-81
2021/06/07 07:45:40;;;;;;;4.50;1.98;;;25.00;99.90;;;;;;6264886;22;20171;-82
2021/06/07 07:48:08;;;;;;;1.92;1.55;;;25.20;99.90;;;;;;6264747;22;20456;-80
2021/06/07 07:50:36;;;;;;;2.65;2.08;;;24.90;99.90;;;;;;6263643;22;20180;-78
2021/06/07 07:53:03;;;;;;;3.03;1.60;;;25.00;99.90;;;;;;6264507;22;20196;-81
2021/06/07 07:55:31;;;;;;;3.35;1.95;;;25.20;99.90;;;;;;6263939;22;20231;-79
2021/06/07 07:58:01;;;;;;;2.47;1.40;;;25.30;99.90;;;;;;6264704;22;20173;-81
2021/06/07 08:00:30;;;;;;;2.47;1.70;;;25.50;99.90;;;;;;6265112;22;20208;-81
2021/06/07 08:02:59;;;;;;;2.05;1.63;;;25.40;99.90;;;;;;6263534;22;20169;-81
2021/06/07 08:05:25;;;;;;;4.20;2.15;;;25.40;99.90;;;;;;6265732;22;20180;-80
2021/06/07 08:07:52;;;;;;;2.63;1.88;;;25.30;99.90;;;;;;6264585;22;20243;-81
2021/06/07 08:10:19;;;;;;;3.65;2.20;;;25.20;99.90;;;;;;6264539;22;20175;-80
2021/06/07 08:12:46;;;;;;;3.05;1.70;;;24.90;99.90;;;;;;6262097;22;20193;-82
2021/06/07 08:15:14;;;;;;;1.58;1.45;;;25.10;99.90;;;;;;6264028;22;20160;-81
2021/06/07 08:17:41;;;;;;;2.95;1.50;;;25.10;99.90;;;;;;6263702;22;20199;-81
2021/06/07 08:20:10;;;;;;;2.78;1.30;;;24.90;99.90;;;;;;6264087;22;20177;-79
2021/06/07 08:22:36;;;;;;;1.83;1.10;;;25.10;99.90;;;;;;6264448;22;20192;-78
2021/06/07 08:25:04;;;;;;;2.10;0.85;;;25.60;99.90;;;;;;6264085;22;20180;-80
2021/06/07 08:27:30;;;;;;;2.65;1.40;;;25.70;99.90;;;;;;6264933;22;20229;-79
2021/06/07 08:29:57;;;;;;;1.70;1.20;;;25.90;99.90;;;;;;6264680;22;20799;-80
2021/06/07 08:32:25;;;;;;;1.75;1.17;;;26.00;99.90;;;;;;6263413;22;20286;-80
2021/06/07 08:34:51;;;;;;;8.88;2.08;;;26.30;99.90;;;;;;6264560;22;20165;-78
2021/06/07 08:37:17;;;;;;;2.17;1.35;;;26.20;99.90;;;;;;6264282;22;20172;-76
2021/06/07 08:39:45;;;;;;;2.08;1.33;;;26.20;99.90;;;;;;6263561;22;20180;-76
2021/06/07 08:42:12;;;;;;;2.60;1.40;;;26.20;99.90;;;;;;6264117;22;20172;-75
2021/06/07 08:44:38;;;;;;;2.10;0.95;;;26.30;99.90;;;;;;6263446;22;20165;-77
2021/06/07 08:47:05;;;;;;;4.40;1.35;;;26.20;99.90;;;;;;6264277;22;20169;-75
2021/06/07 08:49:33;;;;;;;5.22;1.10;;;26.30;99.90;;;;;;6264950;22;20177;-80
2021/06/07 08:52:00;;;;;;;1.67;1.10;;;26.50;99.90;;;;;;6261135;22;20202;-78
2021/06/07 08:54:27;;;;;;;2.03;1.00;;;26.50;99.90;;;;;;6264592;22;20160;-80
2021/06/07 08:56:53;;;;;;;2.92;1.02;;;26.60;99.90;;;;;;6264423;22;20180;-79
2021/06/07 08:59:19;;;;;;;2.67;1.10;;;26.80;99.90;;;;;;6264148;22;20604;-76
2021/06/07 09:01:46;;;;;;;3.15;1.30;;;26.80;99.90;;;;;;6265052;22;20173;-80
2021/06/07 09:04:14;;;;;;;2.95;1.10;;;26.70;99.90;;;;;;6266241;22;20211;-80
2021/06/07 09:06:45;;;;;;;1.52;1.08;;;26.40;99.90;;;;;;6264231;22;20196;-80
2021/06/07 09:09:16;;;;;;;2.03;1.13;;;26.30;99.90;;;;;;6265783;22;20251;-84
2021/06/07 09:11:44;;;;;;;2.03;1.30;;;26.20;99.90;;;;;;6265131;22;20618;-91
2021/06/07 09:14:18;;;;;;;2.95;1.15;;;25.90;99.90;;;;;;6265984;22;20169;-82
2021/06/07 09:16:45;;;;;;;2.13;1.42;;;25.90;99.90;;;;;;6267338;22;20173;-81
2021/06/07 09:19:19;;;;;;;4.93;1.88;;;26.00;99.90;;;;;;6263324;22;20169;-76
2021/06/07 09:21:47;;;;;;;2.00;1.50;;;25.70;99.90;;;;;;6265240;22;20175;-78
2021/06/07 09:24:14;;;;;;;2.38;1.50;;;26.00;99.90;;;;;;6267334;22;20711;-78
2021/06/07 09:26:43;;;;;;;2.85;1.38;;;26.10;99.90;;;;;;6268479;22;20176;-81
2021/06/07 09:29:13;;;;;;;4.40;1.42;;;26.20;99.90;;;;;;6267447;22;20183;-82
2021/06/07 09:31:41;;;;;;;1.85;1.33;;;26.50;99.90;;;;;;6269505;22;20243;-79
2021/06/07 09:34:09;;;;;;;1.55;1.20;;;26.40;99.90;;;;;;6267589;22;20176;-83
2021/06/07 09:36:35;;;;;;;2.45;1.42;;;26.30;99.90;;;;;;6268975;22;20226;-83
2021/06/07 09:39:14;;;;;;;1.92;1.30;;;26.40;99.90;;;;;;6267549;22;20226;-80
2021/06/07 09:41:56;;;;;;;2.88;1.10;;;26.50;99.90;;;;;;6267129;22;20398;-84
2021/06/07 09:44:25;;;;;;;3.45;1.10;;;26.70;99.90;;;;;;6267549;22;20171;-77
2021/06/07 09:46:53;;;;;;;1.55;1.10;;;26.70;99.90;;;;;;6264652;22;20705;-80
2021/06/07 09:49:20;;;;;;;2.40;1.10;;;26.50;99.90;;;;;;6268438;22;20176;-84
2021/06/07 09:51:55;;;;;;;2.17;0.85;;;26.40;99.90;;;;;;6267924;22;20221;-84
2021/06/07 09:54:24;;;;;;;1.38;0.73;;;26.40;99.90;;;;;;6267241;22;20180;-83
2021/06/07 09:56:53;;;;;;;1.20;0.70;;;26.20;99.90;;;;;;6267044;22;20603;-87
2021/06/07 09:59:27;;;;;;;3.63;0.95;;;26.10;99.90;;;;;;6266187;22;20192;-81
2021/06/07 10:01:55;;;;;;;1.80;1.02;;;25.70;99.90;;;;;;6263509;22;20168;-82
2021/06/07 10:04:22;;;;;;;2.97;1.00;;;25.70;99.90;;;;;;6265452;22;20280;-81
2021/06/07 10:06:48;;;;;;;2.55;1.00;;;25.90;99.90;;;;;;6264378;22;20189;-76
2021/06/07 10:09:18;;;;;;;2.33;1.08;;;26.00;99.90;;;;;;6263526;22;20562;-79
2021/06/07 10:11:46;;;;;;;1.95;0.75;;;26.10;99.90;;;;;;6266559;22;20172;-80
2021/06/07 10:14:15;;;;;;;1.80;0.90;;;26.40;99.90;;;;;;6266295;22;20854;-80
2021/06/07 10:16:50;;;;;;;2.47;1.05;;;26.60;99.90;;;;;;6266037;22;20177;-82
2021/06/07 10:19:19;;;;;;;2.38;1.00;;;26.50;99.90;;;;;;6266024;22;20893;-81
2021/06/07 10:21:46;;;;;;;2.00;1.17;;;26.50;99.90;;;;;;6264871;22;20173;-83
2021/06/07 10:24:13;;;;;;;3.58;1.02;;;26.40;99.90;;;;;;6265181;22;20173;-77
2021/06/07 10:26:40;;;;;;;1.40;0.80;;;26.60;99.90;;;;;;6265851;22;20172;-83
2021/06/07 10:29:07;;;;;;;1.00;0.68;;;26.80;99.90;;;;;;6266200;22;20257;-77
2021/06/07 10:31:39;;;;;;;1.73;0.90;;;27.00;99.90;;;;;;6267139;22;20643;-83
2021/06/07 10:34:07;;;;;;;1.88;0.75;;;27.00;99.90;;;;;;6267478;22;20197;-87
2021/06/07 10:36:42;;;;;;;1.65;0.85;;;27.10;99.90;;;;;;6265465;22;20195;-87
2021/06/07 10:39:24;;;;;;;1.58;0.90;;;27.10;99.90;;;;;;6264963;22;20176;-82
2021/06/07 10:42:21;;;;;;;1.55;1.08;;;27.20;99.90;;;;;;6261506;22;20177;-81
2021/06/07 10:45:08;;;;;;;2.38;1.08;;;27.10;99.90;;;;;;6263619;22;20192;-78
2021/06/07 10:47:43;;;;;;;1.67;0.80;;;27.00;99.90;;;;;;6263913;22;20165;-80
2021/06/07 10:50:12;;;;;;;1.65;0.95;;;27.00;99.90;;;;;;6264227;22;20176;-77
2021/06/07 10:52:49;;;;;;;3.25;1.00;;;27.00;99.90;;;;;;6264926;22;20281;-80
2021/06/07 10:55:21;;;;;;;2.30;0.93;;;26.90;99.90;;;;;;6266933;22;20487;-82
2021/06/07 10:57:54;;;;;;;1.90;1.17;;;26.90;99.90;;;;;;6267237;22;20175;-82
2021/06/07 11:00:25;;;;;;;1.98;1.10;;;26.60;99.90;;;;;;6265632;22;20218;-81
2021/06/07 11:02:53;;;;;;;1.67;0.98;;;26.90;99.90;;;;;;6266843;22;20160;-81
2021/06/07 11:05:21;;;;;;;2.28;0.80;;;27.00;99.90;;;;;;6266214;22;20388;-81
2021/06/07 11:08:01;;;;;;;2.97;1.00;;;27.20;99.90;;;;;;6267326;22;20219;-81
2021/06/07 11:10:30;;;;;;;1.77;0.88;;;27.20;99.90;;;;;;6267618;22;20240;-84
2021/06/07 11:12:58;;;;;;;3.17;1.13;;;27.00;99.90;;;;;;6264120;22;20245;-80
2021/06/07 11:15:28;;;;;;;2.97;0.95;;;27.10;99.90;;;;;;6267427;22;20176;-83
2021/06/07 11:18:26;;;;;;;3.30;0.90;;;26.70;99.90;;;;;;6267163;22;20215;-81
2021/06/07 11:20:55;;;;;;;2.25;0.90;;;26.50;99.90;;;;;;6266013;22;20160;-78
2021/06/07 11:23:31;;;;;;;1.00;0.90;;;26.20;99.90;;;;;;6268165;22;20180;-81
2021/06/07 11:25:57;;;;;;;1.90;1.10;;;26.20;99.90;;;;;;6267524;22;20522;-83
2021/06/07 11:28:41;;;;;;;3.60;0.88;;;26.30;99.90;;;;;;6266932;22;20545;-77
2021/06/07 11:31:54;;;;;;;1.63;0.93;;;26.20;99.90;;;;;;6266933;22;20242;-76
2021/06/07 11:34:45;;;;;;;0.73;0.65;;;26.30;99.90;;;;;;6267291;22;20678;-77
2021/06/07 11:37:28;;;;;;;2.22;0.90;;;26.50;99.90;;;;;;6268872;22;20547;-81
2021/06/07 11:39:55;;;;;;;2.83;0.82;;;26.80;99.90;;;;;;6268637;22;20180;-80
2021/06/07 11:42:27;;;;;;;1.52;0.60;;;26.70;99.90;;;;;;6272889;22;20215;-83
2021/06/07 11:44:59;;;;;;;2.05;0.85;;;26.80;99.90;;;;;;6274908;22;20483;-80
2021/06/07 11:47:49;;;;;;;0.70;0.70;;;27.00;99.90;;;;;;6275515;22;20168;-83
2021/06/07 11:50:28;;;;;;;1.67;0.60;;;26.90;99.90;;;;;;6283782;22;20169;-81
2021/06/07 11:52:56;;;;;;;2.13;0.80;;;26.90;99.90;;;;;;6285842;22;20208;-80
2021/06/07 11:55:30;;;;;;;1.75;0.60;;;26.80;99.90;;;;;;6270539;22;20180;-81
2021/06/07 11:58:20;;;;;;;1.15;0.70;;;26.60;99.90;;;;;;6267977;22;20219;-81
2021/06/07 12:00:50;;;;;;;2.00;1.00;;;26.60;99.90;;;;;;6244454;22;20169;-84
2021/06/07 12:03:19;;;;;;;1.45;0.80;;;26.70;99.90;;;;;;6267757;22;20227;-85
2021/06/07 12:05:47;;;;;;;2.30;0.98;;;26.70;99.90;;;;;;6267743;22;20259;-82
2021/06/07 12:08:17;;;;;;;2.03;1.00;;;26.30;99.90;;;;;;6268862;22;20200;-86
2021/06/07 12:10:49;;;;;;;3.33;0.80;;;26.50;99.90;;;;;;6270382;22;20204;-88
2021/06/07 12:13:22;;;;;;;1.60;0.80;;;26.20;99.90;;;;;;6271176;22;20189;-87
2021/06/07 12:15:53;;;;;;;1.75;1.00;;;26.10;99.90;;;;;;6270381;22;20325;-86
2021/06/07 12:18:34;;;;;;;0.98;0.70;;;26.10;99.90;;;;;;6271691;22;20678;-86
2021/06/07 12:21:05;;;;;;;2.08;0.93;;;26.10;99.90;;;;;;6271839;22;20708;-84
2021/06/07 12:23:35;;;;;;;2.00;0.90;;;26.20;99.90;;;;;;6268664;22;20195;-83
2021/06/07 12:29:24;;;;;;;3.00;0.95;;;26.00;99.90;;;;;;6268934;22;20226;-86
2021/06/07 12:32:18;;;;;;;3.22;0.95;;;26.20;99.90;;;;;;6269479;22;20685;-88
2021/06/07 12:35:03;;;;;;;0.95;0.80;;;26.10;99.90;;;;;;6249124;22;20452;-83
2021/06/07 12:37:32;;;;;;;1.90;0.95;;;26.20;99.90;;;;;;6263436;22;20550;-81
2021/06/07 12:40:25;;;;;;;2.70;0.80;;;26.30;99.90;;;;;;6266116;22;20175;-85
2021/06/07 12:42:54;;;;;;;1.70;0.65;;;26.20;99.90;;;;;;6237431;22;20169;-87
2021/06/07 12:45:23;;;;;;;2.78;0.80;;;26.00;99.90;;;;;;6267017;22;20172;-80
2021/06/07 12:47:50;;;;;;;1.05;0.77;;;26.00;99.90;;;;;;6265730;22;20227;-84
2021/06/07 12:50:21;;;;;;;2.45;0.70;;;25.90;99.90;;;;;;6264528;22;20169;-78
2021/06/07 12:52:52;;;;;;;2.53;0.90;;;25.80;99.90;;;;;;6265398;22;20184;-86
2021/06/07 12:55:21;;;;;;;1.83;1.00;;;26.00;99.90;;;;;;6267474;22;20157;-78
2021/06/07 12:57:48;;;;;;;3.22;0.90;;;26.10;99.90;;;;;;6266040;22;20180;-81
2021/06/07 13:00:30;;;;;;;0.98;0.70;;;26.20;99.90;;;;;;6266892;22;20177;-85
2021/06/07 13:02:58;;;;;;;1.23;0.80;;;26.20;99.90;;;;;;6265450;22;20190;-79